createdAt,value
2023-01-10T00:01:28.792Z,66.90
2023-01-10T00:03:56.171Z,66.90
2023-01-10T00:06:23.030Z,66.80
2023-01-10T00:08:49.733Z,67.10
2023-01-10T00:11:35.269Z,67.30
2023-01-10T00:14:01.993Z,67.40
2023-01-10T00:16:28.776Z,67.60
2023-01-10T00:18:55.536Z,67.80
2023-01-10T00:21:22.291Z,67.90
2023-01-10T00:23:49.151Z,68.10
2023-01-10T00:26:15.907Z,68.10
2023-01-10T00:28:43.144Z,68.20
2023-01-10T00:31:12.007Z,68.20
2023-01-10T00:33:39.106Z,68.20
2023-01-10T00:36:07.783Z,68.30
2023-01-10T00:38:35.670Z,68.50
2023-01-10T00:41:28.100Z,68.50
2023-01-10T00:43:57.912Z,68.60
2023-01-10T00:46:25.567Z,68.70
2023-01-10T00:48:52.830Z,68.60
2023-01-10T00:51:19.956Z,68.60
2023-01-10T00:53:46.734Z,68.70
2023-01-10T00:56:13.481Z,68.90
2023-01-10T00:58:40.254Z,69.00
2023-01-10T01:01:07.131Z,69.10
2023-01-10T01:03:33.949Z,69.10
2023-01-10T01:06:07.655Z,70.10
2023-01-10T01:08:34.904Z,69.40
2023-01-10T01:11:01.635Z,69.50
2023-01-10T01:13:28.641Z,69.80
2023-01-10T01:15:59.257Z,70.00
2023-01-10T01:18:27.448Z,70.10
2023-01-10T01:20:56.763Z,70.20
2023-01-10T01:23:24.435Z,70.30
2023-01-10T01:25:55.192Z,70.50
2023-01-10T01:28:22.895Z,70.70
2023-01-10T01:30:50.158Z,70.70
2023-01-10T01:33:18.370Z,70.90
2023-01-10T01:35:47.218Z,71.20
2023-01-10T01:38:14.702Z,71.60
2023-01-10T01:40:41.965Z,71.70
2023-01-10T01:43:24.970Z,71.90
2023-01-10T01:45:52.622Z,72.20
2023-01-10T01:48:40.105Z,72.40
2023-01-10T01:51:22.786Z,72.50
2023-01-10T01:53:54.509Z,73.50
2023-01-10T01:56:30.508Z,72.70
2023-01-10T01:59:13.524Z,72.60
2023-01-10T02:01:42.558Z,72.70
2023-01-10T02:04:17.352Z,72.80
2023-01-10T02:06:47.479Z,72.90
2023-01-10T02:09:41.426Z,72.80
2023-01-10T02:12:09.100Z,72.90
2023-01-10T02:14:37.039Z,72.90
2023-01-10T02:17:03.956Z,73.00
2023-01-10T02:20:00.007Z,72.90
2023-01-10T02:22:51.634Z,72.90
2023-01-10T02:25:33.482Z,72.90
2023-01-10T02:28:23.151Z,72.90
2023-01-10T02:31:19.403Z,73.70
2023-01-10T02:34:20.797Z,72.80
2023-01-10T02:37:08.539Z,72.80
2023-01-10T02:39:48.262Z,72.70
2023-01-10T02:42:51.300Z,72.70
2023-01-10T02:45:25.150Z,72.60
2023-01-10T02:47:52.235Z,72.50
2023-01-10T02:50:34.157Z,72.40
2023-01-10T02:53:07.356Z,72.10
2023-01-10T02:55:41.172Z,72.00
2023-01-10T02:58:44.163Z,71.90
2023-01-10T03:01:23.192Z,71.80
2023-01-10T03:03:53.497Z,71.80
2023-01-10T03:06:28.190Z,71.70
2023-01-10T03:09:33.586Z,71.60
2023-01-10T03:12:31.545Z,71.70
2023-01-10T03:15:00.534Z,71.90
2023-01-10T03:17:30.523Z,71.90
2023-01-10T03:20:01.056Z,72.00
2023-01-10T03:22:30.756Z,72.10
2023-01-10T03:25:01.278Z,72.20
2023-01-10T03:27:38.936Z,72.40
2023-01-10T03:30:14.175Z,72.50
2023-01-10T03:32:42.137Z,72.30
2023-01-10T03:35:10.838Z,71.90
2023-01-10T03:38:02.462Z,71.80
2023-01-10T03:40:36.972Z,71.70
2023-01-10T03:43:34.310Z,71.80
2023-01-10T03:46:12.215Z,71.90
2023-01-10T03:48:43.847Z,72.00
2023-01-10T03:51:12.651Z,72.20
2023-01-10T03:53:40.049Z,72.30
2023-01-10T03:56:07.324Z,72.30
2023-01-10T03:58:34.276Z,72.40
2023-01-10T04:01:01.692Z,72.50
2023-01-10T04:03:28.773Z,72.60
2023-01-10T04:05:55.509Z,72.60
2023-01-10T04:08:22.319Z,72.70
2023-01-10T04:10:50.026Z,72.90
2023-01-10T04:13:17.042Z,72.90
2023-01-10T04:15:43.747Z,72.90
2023-01-10T04:18:10.557Z,72.90
2023-01-10T04:20:37.325Z,72.80
2023-01-10T04:23:04.049Z,72.90
2023-01-10T04:25:31.657Z,72.90
2023-01-10T04:27:59.489Z,72.90
2023-01-10T04:30:26.202Z,72.80
2023-01-10T04:32:53.641Z,73.00
2023-01-10T04:35:20.391Z,73.10
2023-01-10T04:37:47.379Z,73.00
2023-01-10T04:40:17.108Z,72.90
2023-01-10T04:42:43.891Z,73.00
2023-01-10T04:45:13.523Z,73.00
2023-01-10T04:47:40.267Z,72.70
2023-01-10T04:50:07.206Z,72.60
2023-01-10T04:52:33.955Z,72.50
2023-01-10T04:55:00.669Z,72.30
2023-01-10T04:57:27.359Z,72.10
2023-01-10T04:59:54.072Z,72.30
2023-01-10T05:02:20.901Z,72.40
2023-01-10T05:04:47.677Z,72.30
2023-01-10T05:07:14.564Z,72.20
2023-01-10T05:09:42.907Z,72.00
2023-01-10T05:12:09.651Z,71.70
2023-01-10T05:14:36.422Z,71.50
2023-01-10T05:17:03.157Z,71.30
2023-01-10T05:19:29.877Z,71.50
2023-01-10T05:21:56.609Z,71.90
2023-01-10T05:24:23.386Z,72.30
2023-01-10T05:26:50.206Z,72.50
2023-01-10T05:29:16.955Z,72.60
2023-01-10T05:31:43.728Z,72.70
2023-01-10T05:34:13.087Z,73.00
2023-01-10T05:36:40.465Z,73.20
2023-01-10T05:39:07.331Z,73.30
2023-01-10T05:41:34.024Z,73.50
2023-01-10T05:44:00.749Z,74.40
2023-01-10T05:46:27.507Z,73.60
2023-01-10T05:48:54.242Z,73.60
2023-01-10T05:51:21.542Z,73.80
2023-01-10T05:53:49.628Z,73.70
2023-01-10T05:56:17.141Z,73.80
2023-01-10T05:58:45.489Z,73.80
2023-01-10T06:01:13.855Z,73.80
2023-01-10T06:03:40.716Z,73.90
2023-01-10T06:06:07.995Z,73.80
2023-01-10T06:08:36.942Z,73.70
2023-01-10T06:11:05.077Z,73.70
2023-01-10T06:13:32.187Z,73.70
2023-01-10T06:15:59.250Z,73.80
2023-01-10T06:18:26.616Z,73.80
2023-01-10T06:20:53.377Z,73.80
2023-01-10T06:23:20.745Z,73.80
2023-01-10T06:25:49.911Z,73.80
2023-01-10T06:28:16.821Z,73.60
2023-01-10T06:30:43.754Z,73.50
2023-01-10T06:33:11.647Z,73.50
2023-01-10T06:35:39.634Z,73.50
2023-01-10T06:38:06.425Z,73.50
2023-01-10T06:40:33.307Z,73.60
2023-01-10T06:43:00.257Z,73.50
2023-01-10T06:45:27.110Z,73.50
2023-01-10T06:47:53.885Z,73.40
2023-01-10T06:50:20.725Z,73.10
2023-01-10T06:52:58.387Z,72.80
2023-01-10T06:55:25.835Z,72.50
2023-01-10T06:58:01.227Z,72.30
2023-01-10T07:00:29.442Z,72.30
2023-01-10T07:02:59.131Z,72.50
2023-01-10T07:05:25.888Z,72.60
2023-01-10T07:07:53.107Z,72.90
2023-01-10T07:10:21.498Z,73.10
2023-01-10T07:12:48.293Z,73.10
2023-01-10T07:15:15.015Z,73.10
2023-01-10T07:17:41.728Z,73.20
2023-01-10T07:20:09.255Z,73.10
2023-01-10T07:22:35.962Z,72.90
2023-01-10T07:25:03.374Z,72.70
2023-01-10T07:27:33.549Z,72.50
2023-01-10T07:30:00.442Z,72.20
2023-01-10T07:32:27.369Z,72.20
2023-01-10T07:34:54.061Z,72.20
2023-01-10T07:37:20.870Z,72.20
2023-01-10T07:39:48.976Z,72.10
2023-01-10T07:42:15.706Z,71.90
2023-01-10T07:44:42.456Z,71.80
2023-01-10T07:47:09.240Z,71.60
2023-01-10T07:49:35.973Z,71.70
2023-01-10T07:52:02.842Z,72.10
2023-01-10T07:54:29.567Z,72.40
2023-01-10T07:56:56.871Z,72.60
2023-01-10T07:59:23.576Z,72.70
2023-01-10T08:01:50.416Z,72.80
2023-01-10T08:04:17.242Z,72.70
2023-01-10T08:06:43.935Z,72.60
2023-01-10T08:09:10.755Z,72.70
2023-01-10T08:11:37.477Z,72.80
2023-01-10T08:14:04.381Z,72.90
2023-01-10T08:16:31.152Z,72.90
2023-01-10T08:18:57.873Z,72.90
2023-01-10T08:21:24.561Z,72.90
2023-01-10T08:23:51.678Z,72.90
2023-01-10T08:26:18.878Z,72.90
2023-01-10T08:28:45.618Z,72.90
2023-01-10T08:31:12.402Z,72.80
2023-01-10T08:33:40.673Z,72.70
2023-01-10T08:36:15.989Z,72.50
2023-01-10T08:38:42.815Z,72.50
2023-01-10T08:41:09.563Z,72.50
2023-01-10T08:43:36.330Z,72.40
2023-01-10T08:46:03.122Z,72.40
2023-01-10T08:48:30.197Z,72.40
2023-01-10T08:50:56.951Z,72.40
2023-01-10T08:53:23.822Z,72.10
2023-01-10T08:55:50.955Z,72.10
2023-01-10T08:58:17.909Z,73.00
2023-01-10T09:00:45.137Z,72.10
2023-01-10T09:03:11.921Z,72.10
2023-01-10T09:05:38.714Z,72.00
2023-01-10T09:08:05.701Z,71.80
2023-01-10T09:10:32.685Z,71.80
2023-01-10T09:13:01.581Z,71.90
2023-01-10T09:15:32.096Z,71.80
2023-01-10T09:18:00.748Z,71.70
2023-01-10T09:20:29.267Z,71.80
2023-01-10T09:22:57.295Z,71.60
2023-01-10T09:25:24.838Z,71.70
2023-01-10T09:27:59.389Z,71.50
2023-01-10T09:30:27.824Z,71.60
2023-01-10T09:32:55.875Z,71.70
2023-01-10T09:35:23.834Z,71.60
2023-01-10T09:37:53.431Z,71.60
2023-01-10T09:40:31.409Z,71.60
2023-01-10T09:43:18.069Z,71.60
2023-01-10T09:46:10.315Z,71.30
2023-01-10T09:48:52.272Z,71.40
2023-01-10T09:51:38.907Z,71.20
2023-01-10T09:54:13.116Z,71.10
2023-01-10T09:56:40.817Z,71.30
2023-01-10T09:59:21.821Z,71.30
2023-01-10T10:01:52.886Z,71.40
2023-01-10T10:04:36.194Z,71.40
2023-01-10T10:07:05.301Z,71.20
2023-01-10T10:09:35.217Z,71.10
2023-01-10T10:12:29.793Z,71.20
2023-01-10T10:15:26.960Z,71.20
2023-01-10T10:18:18.444Z,71.40
2023-01-10T10:20:58.859Z,71.30
2023-01-10T10:23:48.955Z,71.40
2023-01-10T10:26:21.826Z,71.70
2023-01-10T10:29:25.294Z,71.60
2023-01-10T10:32:24.279Z,71.40
2023-01-10T10:35:02.502Z,71.40
2023-01-10T10:37:51.417Z,71.20
2023-01-10T10:40:22.671Z,71.10
2023-01-10T10:42:52.683Z,71.00
2023-01-10T10:45:24.544Z,71.00
2023-01-10T10:48:05.776Z,70.90
2023-01-10T10:50:34.799Z,71.00
2023-01-10T10:53:04.106Z,72.00
2023-01-10T10:55:36.766Z,71.00
2023-01-10T10:58:05.745Z,71.10
2023-01-10T11:00:33.063Z,71.20
2023-01-10T11:03:26.206Z,71.30
2023-01-10T11:05:53.714Z,71.20
2023-01-10T11:08:22.388Z,71.20
2023-01-10T11:10:54.375Z,71.30
2023-01-10T11:13:55.200Z,71.30
2023-01-10T11:16:30.952Z,71.20
2023-01-10T11:19:12.036Z,71.30
2023-01-10T11:21:41.217Z,71.20
2023-01-10T11:24:33.620Z,71.10
2023-01-10T11:27:13.601Z,71.20
2023-01-10T11:29:47.896Z,71.00
2023-01-10T11:32:18.488Z,71.10
2023-01-10T11:35:01.599Z,71.30
2023-01-10T11:37:33.943Z,71.30
2023-01-10T11:40:20.914Z,71.30
2023-01-10T11:42:48.063Z,71.30
2023-01-10T11:45:17.823Z,71.10
2023-01-10T11:48:19.271Z,71.10
2023-01-10T11:50:54.258Z,71.10
2023-01-10T11:53:39.357Z,71.10
2023-01-10T11:56:07.657Z,71.00
2023-01-10T11:58:36.969Z,71.10
2023-01-10T12:01:04.321Z,70.80
2023-01-10T12:03:36.875Z,71.70
2023-01-10T12:06:08.321Z,70.70
2023-01-10T12:08:42.330Z,70.80
2023-01-10T12:11:18.189Z,70.70
2023-01-10T12:13:48.841Z,70.90
2023-01-10T12:16:22.815Z,70.80
2023-01-10T12:18:52.274Z,70.80
2023-01-10T12:21:28.510Z,70.90
2023-01-10T12:23:58.782Z,70.70
2023-01-10T12:26:29.586Z,70.60
2023-01-10T12:28:59.909Z,70.80
2023-01-10T12:31:31.003Z,70.90
2023-01-10T12:34:07.103Z,71.00
2023-01-10T12:37:19.168Z,71.10
2023-01-10T12:39:53.205Z,71.00
2023-01-10T12:43:02.533Z,70.80
2023-01-10T12:45:39.001Z,70.80
2023-01-10T12:48:14.054Z,70.60
2023-01-10T12:50:48.640Z,70.50
2023-01-10T12:53:25.816Z,70.30
2023-01-10T12:55:56.316Z,70.40
2023-01-10T12:58:30.475Z,70.40
2023-01-10T13:01:02.323Z,70.40
2023-01-10T13:03:33.329Z,70.40
2023-01-10T13:06:01.834Z,70.30
2023-01-10T13:08:33.171Z,70.10
2023-01-10T13:11:01.307Z,70.10
2023-01-10T13:13:35.414Z,70.00
2023-01-10T13:16:16.590Z,70.00
2023-01-10T13:19:01.903Z,69.90
2023-01-10T13:21:31.374Z,69.90
2023-01-10T13:24:04.744Z,69.80
2023-01-10T13:26:55.742Z,69.90
2023-01-10T13:29:29.205Z,69.80
2023-01-10T13:32:01.211Z,69.90
2023-01-10T13:34:34.271Z,69.60
2023-01-10T13:37:04.281Z,70.00
2023-01-10T13:39:48.895Z,70.10
2023-01-10T13:42:47.753Z,70.00
2023-01-10T13:45:16.699Z,69.90
2023-01-10T13:47:44.107Z,69.90
2023-01-10T13:50:23.191Z,69.70
2023-01-10T13:52:50.959Z,69.30
2023-01-10T13:55:34.295Z,69.40
2023-01-10T13:58:41.368Z,69.70
2023-01-10T14:01:54.982Z,70.10
2023-01-10T14:04:35.853Z,70.10
2023-01-10T14:07:06.391Z,70.30
2023-01-10T14:09:42.396Z,70.60
2023-01-10T14:12:18.614Z,70.90
2023-01-10T14:14:58.846Z,71.10
2023-01-10T14:17:29.631Z,71.30
2023-01-10T14:20:17.351Z,71.70
2023-01-10T14:23:26.908Z,72.10
2023-01-10T14:25:56.662Z,72.40
2023-01-10T14:28:34.069Z,72.60
2023-01-10T14:31:25.528Z,73.10
2023-01-10T14:33:53.559Z,73.20
2023-01-10T14:36:27.295Z,73.40
2023-01-10T14:38:57.721Z,73.70
2023-01-10T14:41:38.448Z,73.80
2023-01-10T14:44:17.091Z,73.90
2023-01-10T14:46:50.301Z,74.20
2023-01-10T14:49:27.053Z,74.30
2023-01-10T14:52:00.924Z,74.60
2023-01-10T14:54:29.381Z,74.70
2023-01-10T14:56:57.584Z,74.90
2023-01-10T14:59:36.102Z,75.10
2023-01-10T15:02:17.728Z,75.30
2023-01-10T15:05:09.431Z,75.60
2023-01-10T15:07:37.562Z,75.80
2023-01-10T15:10:25.653Z,76.00
2023-01-10T15:12:56.138Z,76.30
2023-01-10T15:15:31.584Z,76.50
2023-01-10T15:18:00.827Z,76.60
2023-01-10T15:20:28.295Z,76.70
2023-01-10T15:23:01.355Z,76.90
2023-01-10T15:25:39.225Z,76.90
2023-01-10T15:28:14.969Z,76.90
2023-01-10T15:30:42.621Z,77.00
2023-01-10T15:33:26.800Z,77.00
2023-01-10T15:35:54.004Z,77.10
2023-01-10T15:38:27.252Z,77.10
2023-01-10T15:41:03.593Z,77.00
2023-01-10T15:43:32.180Z,77.20
2023-01-10T15:46:01.239Z,77.40
2023-01-10T15:48:41.258Z,77.60
2023-01-10T15:51:26.946Z,77.70
2023-01-10T15:54:05.741Z,77.90
2023-01-10T15:56:38.211Z,77.90
2023-01-10T15:59:51.422Z,77.80
2023-01-10T16:02:32.667Z,78.00
2023-01-10T16:05:08.058Z,78.10
2023-01-10T16:07:41.726Z,78.30
2023-01-10T16:10:29.890Z,78.60
2023-01-10T16:13:28.620Z,78.60
2023-01-10T16:15:57.645Z,78.50
2023-01-10T16:18:25.807Z,78.60
2023-01-10T16:20:55.394Z,78.60
2023-01-10T16:23:25.845Z,78.80
2023-01-10T16:25:59.129Z,78.80
2023-01-10T16:28:29.040Z,78.80
2023-01-10T16:30:55.946Z,78.80
2023-01-10T16:33:24.843Z,79.10
2023-01-10T16:35:57.394Z,79.10
2023-01-10T16:38:25.958Z,79.30
2023-01-10T16:41:22.676Z,79.40
2023-01-10T16:43:50.033Z,79.50
2023-01-10T16:46:16.792Z,79.70
2023-01-10T16:48:47.416Z,79.60
2023-01-10T16:51:18.569Z,79.70
2023-01-10T16:53:46.266Z,79.80
2023-01-10T16:56:15.418Z,79.90
2023-01-10T16:58:42.359Z,79.80
2023-01-10T17:01:24.771Z,79.90
2023-01-10T17:03:51.963Z,79.90
2023-01-10T17:06:18.901Z,79.80
2023-01-10T17:08:45.718Z,79.90
2023-01-10T17:11:29.223Z,79.80
2023-01-10T17:13:56.291Z,79.80
2023-01-10T17:16:23.299Z,79.90
2023-01-10T17:18:50.037Z,80.00
2023-01-10T17:21:19.349Z,79.90
2023-01-10T17:23:46.347Z,79.90
2023-01-10T17:26:16.274Z,80.00
2023-01-10T17:28:45.797Z,80.00
2023-01-10T17:31:12.566Z,80.10
2023-01-10T17:33:39.293Z,80.10
2023-01-10T17:36:06.307Z,80.10
2023-01-10T17:38:33.178Z,80.10
2023-01-10T17:41:03.342Z,80.80
2023-01-10T17:43:31.415Z,79.90
2023-01-10T17:46:01.521Z,79.90
2023-01-10T17:48:28.463Z,80.00
2023-01-10T17:50:58.147Z,80.10
2023-01-10T17:53:25.279Z,80.00
2023-01-10T17:55:52.607Z,80.10
2023-01-10T17:58:20.183Z,80.00
2023-01-10T18:00:48.707Z,80.00
2023-01-10T18:03:16.254Z,79.90
2023-01-10T18:05:52.841Z,79.90
2023-01-10T18:08:20.300Z,79.80
2023-01-10T18:10:47.559Z,79.80
2023-01-10T18:13:17.308Z,79.80
2023-01-10T18:15:46.616Z,79.90
2023-01-10T18:18:13.893Z,79.80
2023-01-10T18:20:42.224Z,79.80
2023-01-10T18:23:23.068Z,79.80
2023-01-10T18:26:02.941Z,79.70
2023-01-10T18:28:41.417Z,79.70
2023-01-10T18:31:15.914Z,79.70
2023-01-10T18:33:43.667Z,79.60
2023-01-10T18:36:19.719Z,79.70
2023-01-10T18:38:47.843Z,79.70
2023-01-10T18:41:15.775Z,79.60
2023-01-10T18:43:42.516Z,79.60
2023-01-10T18:46:15.188Z,79.50
2023-01-10T18:48:41.962Z,79.50
2023-01-10T18:51:12.278Z,79.50
2023-01-10T18:53:39.663Z,79.40
2023-01-10T18:56:06.826Z,79.40
2023-01-10T18:58:36.434Z,79.30
2023-01-10T19:01:08.366Z,79.30
2023-01-10T19:03:35.962Z,79.30
2023-01-10T19:06:10.564Z,79.30
2023-01-10T19:08:40.536Z,80.10
2023-01-10T19:11:14.256Z,79.20
2023-01-10T19:13:42.095Z,79.10
2023-01-10T19:16:13.488Z,79.00
2023-01-10T19:18:41.189Z,79.70
2023-01-10T19:21:15.231Z,78.80
2023-01-10T19:23:43.410Z,78.80
2023-01-10T19:26:10.519Z,78.70
2023-01-10T19:28:37.540Z,78.60
2023-01-10T19:31:07.376Z,78.60
2023-01-10T19:33:35.255Z,78.60
2023-01-10T19:36:08.628Z,78.60
2023-01-10T19:38:35.829Z,78.60
2023-01-10T19:41:03.577Z,78.50
2023-01-10T19:43:30.620Z,78.60
2023-01-10T19:45:57.519Z,78.50
2023-01-10T19:48:25.095Z,78.40
2023-01-10T19:50:52.026Z,78.50
2023-01-10T19:53:23.770Z,78.40
2023-01-10T19:56:03.100Z,78.30
2023-01-10T19:58:30.029Z,78.20
2023-01-10T20:00:56.870Z,78.30
2023-01-10T20:03:23.612Z,78.30
2023-01-10T20:05:50.390Z,78.20
2023-01-10T20:08:17.912Z,78.30
2023-01-10T20:10:44.723Z,78.30
2023-01-10T20:13:11.514Z,78.30
2023-01-10T20:15:40.758Z,78.40
2023-01-10T20:18:07.589Z,78.40
2023-01-10T20:20:35.253Z,78.30
2023-01-10T20:23:01.991Z,78.20
2023-01-10T20:25:28.725Z,78.10
2023-01-10T20:27:58.299Z,78.50
2023-01-10T20:30:25.347Z,78.00
2023-01-10T20:32:55.696Z,77.90
2023-01-10T20:35:22.459Z,77.90
2023-01-10T20:37:49.204Z,77.90
2023-01-10T20:40:16.353Z,77.90
2023-01-10T20:42:44.215Z,78.00
2023-01-10T20:45:11.093Z,78.10
2023-01-10T20:47:37.820Z,78.30
2023-01-10T20:50:04.950Z,78.40
2023-01-10T20:52:31.670Z,78.50
2023-01-10T20:54:58.432Z,78.60
2023-01-10T20:57:25.181Z,78.80
2023-01-10T20:59:51.890Z,78.90
2023-01-10T21:02:18.650Z,79.00
2023-01-10T21:04:45.453Z,79.10
2023-01-10T21:07:12.722Z,79.40
2023-01-10T21:09:39.710Z,79.40
2023-01-10T21:12:21.876Z,79.50
2023-01-10T21:14:49.503Z,79.60
2023-01-10T21:17:16.409Z,79.80
2023-01-10T21:19:43.129Z,80.00
2023-01-10T21:22:09.943Z,79.90
2023-01-10T21:24:37.413Z,79.90
2023-01-10T21:27:04.360Z,80.00
2023-01-10T21:29:31.201Z,80.00
2023-01-10T21:31:58.139Z,80.10
2023-01-10T21:34:25.009Z,80.10
2023-01-10T21:36:52.141Z,80.20
2023-01-10T21:39:19.068Z,80.30
2023-01-10T21:42:04.349Z,81.30
2023-01-10T21:44:31.295Z,80.40
2023-01-10T21:46:58.080Z,80.50
2023-01-10T21:49:24.982Z,80.60
2023-01-10T21:51:51.911Z,80.60
2023-01-10T21:54:18.708Z,80.60
2023-01-10T21:56:45.493Z,80.70
2023-01-10T21:59:12.299Z,80.70
2023-01-10T22:01:39.153Z,80.70
2023-01-10T22:04:06.728Z,80.70
2023-01-10T22:06:33.644Z,80.50
2023-01-10T22:09:00.459Z,80.50
2023-01-10T22:11:27.401Z,80.60
2023-01-10T22:13:55.558Z,80.70
2023-01-10T22:16:22.521Z,80.70
2023-01-10T22:18:50.196Z,80.60
2023-01-10T22:21:19.716Z,80.70
2023-01-10T22:23:46.612Z,80.70
2023-01-10T22:26:15.638Z,80.70
2023-01-10T22:28:42.772Z,80.80
2023-01-10T22:31:09.675Z,80.80
2023-01-10T22:33:37.846Z,80.80
2023-01-10T22:36:23.304Z,80.70
2023-01-10T22:38:50.293Z,80.70
2023-01-10T22:41:19.852Z,80.70
2023-01-10T22:43:47.428Z,80.60
2023-01-10T22:46:15.804Z,80.70
2023-01-10T22:48:42.934Z,80.70
2023-01-10T22:51:09.634Z,80.80
2023-01-10T22:53:36.487Z,80.80
2023-01-10T22:56:09.150Z,81.00
2023-01-10T22:58:36.569Z,81.00
2023-01-10T23:01:07.332Z,80.90
2023-01-10T23:03:34.845Z,80.80
2023-01-10T23:06:01.724Z,80.90
2023-01-10T23:08:28.545Z,80.90
2023-01-10T23:10:55.459Z,81.10
2023-01-10T23:13:22.632Z,81.10
2023-01-10T23:16:01.775Z,81.10
2023-01-10T23:18:29.104Z,81.20
2023-01-10T23:20:57.370Z,81.10
2023-01-10T23:23:24.875Z,81.10
2023-01-10T23:26:04.181Z,81.10
2023-01-10T23:28:36.759Z,81.10
2023-01-10T23:31:04.762Z,81.20
2023-01-10T23:33:32.528Z,81.20
2023-01-10T23:35:59.821Z,81.20
2023-01-10T23:38:27.124Z,81.30
2023-01-10T23:40:53.980Z,81.30
2023-01-10T23:43:20.802Z,81.20
2023-01-10T23:45:47.580Z,81.10
2023-01-10T23:48:14.570Z,81.10
2023-01-10T23:50:41.322Z,81.10
2023-01-10T23:53:08.239Z,81.10
2023-01-10T23:55:35.188Z,81.10
2023-01-10T23:58:01.888Z,81.10
